Time;durP1;ratioP1;P1;durP2;ratioP2;P2;SDS_P1;SDS_P2;PMS_P1;PMS_P2;Temp;Humidity;BMP_temperature;BMP_pressure;BME280_temperature;BME280_humidity;BME280_pressure;Samples;Min_cycle;Max_cycle;Signal;HPM_P1;HPM_P2
2021/01/19 00:01:35;;;;;;;6.33;3.53;;;;;;;;;;5057316;28;20231;-84
2021/01/19 00:04:02;;;;;;;4.37;3.47;;;;;;;;;;5056982;28;20289;-84
2021/01/19 00:06:28;;;;;;;5.43;3.63;;;;;;;;;;5057515;28;20227;-87
2021/01/19 00:08:54;;;;;;;7.07;3.73;;;;;;;;;;5039119;28;20234;-86
2021/01/19 00:11:21;;;;;;;6.30;3.30;;;;;;;;;;5057324;28;20235;-84
2021/01/19 00:13:47;;;;;;;5.33;2.97;;;;;;;;;;5038972;28;20238;-87
2021/01/19 00:16:13;;;;;;;5.70;3.60;;;;;;;;;;5056564;28;20254;-86
2021/01/19 00:18:39;;;;;;;4.30;3.03;;;;;;;;;;5039003;28;20203;-84
2021/01/19 00:21:06;;;;;;;5.37;3.10;;;;;;;;;;5056878;28;20239;-86
2021/01/19 00:23:32;;;;;;;4.60;3.63;;;;;;;;;;5056558;28;20234;-85
2021/01/19 00:25:58;;;;;;;4.87;3.30;;;;;;;;;;5056803;28;20586;-83
2021/01/19 00:28:24;;;;;;;5.80;3.47;;;;;;;;;;5055252;28;20239;-85
2021/01/19 00:30:50;;;;;;;7.03;3.90;;;;;;;;;;5056756;28;20231;-84
2021/01/19 00:33:16;;;;;;;5.00;3.50;;;;;;;;;;5056442;28;20440;-84
2021/01/19 00:35:42;;;;;;;4.27;3.57;;;;;;;;;;5056523;28;20500;-83
2021/01/19 00:38:09;;;;;;;10.17;5.23;;;;;;;;;;5056336;28;20286;-87
2021/01/19 00:40:36;;;;;;;10.03;3.83;;;;;;;;;;5056141;28;20212;-83
2021/01/19 00:43:02;;;;;;;4.87;3.73;;;;;;;;;;5056373;28;20238;-85
2021/01/19 00:45:28;;;;;;;6.00;3.70;;;;;;;;;;5056396;28;20242;-83
2021/01/19 00:47:54;;;;;;;5.80;3.50;;;;;;;;;;5056299;28;20247;-83
2021/01/19 00:50:20;;;;;;;8.40;4.17;;;;;;;;;;5056038;28;20239;-83
2021/01/19 00:52:46;;;;;;;6.40;3.80;;;;;;;;;;5056492;28;20249;-84
2021/01/19 00:55:14;;;;;;;4.87;3.80;;;;;;;;;;5056152;28;20231;-86
2021/01/19 00:57:40;;;;;;;6.53;3.83;;;;;;;;;;5056279;28;20312;-83
2021/01/19 01:00:07;;;;;;;5.07;3.63;;;;;;;;;;5056348;28;20228;-86
2021/01/19 01:02:33;;;;;;;7.57;4.30;;;;;;;;;;5055945;28;20254;-85
2021/01/19 01:05:00;;;;;;;4.73;3.90;;;;;;;;;;5055793;28;20263;-86
2021/01/19 01:07:26;;;;;;;8.27;4.60;;;;;;;;;;5055766;28;20227;-84
2021/01/19 01:09:52;;;;;;;9.73;4.30;;;;;;;;;;5055954;28;20235;-86
2021/01/19 01:12:19;;;;;;;4.80;3.93;;;;;;;;;;5055755;28;20643;-85
2021/01/19 01:14:45;;;;;;;6.20;4.43;;;;;;;;;;5054532;28;20234;-86
2021/01/19 01:17:11;;;;;;;6.33;4.03;;;;;;;;;;5055389;28;20251;-86
2021/01/19 01:19:37;;;;;;;5.27;3.90;;;;;;;;;;5055311;28;20638;-86
2021/01/19 01:22:04;;;;;;;5.17;4.13;;;;;;;;;;5055816;28;20242;-86
2021/01/19 01:24:30;;;;;;;5.63;3.83;;;;;;;;;;5055654;28;20204;-86
2021/01/19 01:26:57;;;;;;;6.93;4.27;;;;;;;;;;5055732;28;20231;-83
2021/01/19 01:29:23;;;;;;;12.67;5.87;;;;;;;;;;5055302;28;20236;-83
2021/01/19 01:31:50;;;;;;;8.73;4.60;;;;;;;;;;5037856;28;20325;-84
2021/01/19 01:34:16;;;;;;;11.60;5.03;;;;;;;;;;5055105;28;20615;-86
2021/01/19 01:36:42;;;;;;;8.03;4.77;;;;;;;;;;5055664;28;20254;-86
2021/01/19 01:39:08;;;;;;;10.73;5.33;;;;;;;;;;5054965;28;20235;-83
2021/01/19 01:41:34;;;;;;;6.10;3.87;;;;;;;;;;5055385;28;20235;-87
2021/01/19 01:44:01;;;;;;;5.90;3.93;;;;;;;;;;5055263;28;20223;-83
2021/01/19 01:46:30;;;;;;;5.20;4.13;;;;;;;;;;5055317;28;20231;-84
2021/01/19 01:48:57;;;;;;;6.17;4.00;;;;;;;;;;5054628;28;20659;-87
2021/01/19 01:51:24;;;;;;;6.67;4.07;;;;;;;;;;5054948;28;20275;-83
2021/01/19 01:53:51;;;;;;;5.90;3.80;;;;;;;;;;5053636;28;20204;-83
2021/01/19 01:56:17;;;;;;;7.00;3.83;;;;;;;;;;5054648;28;20276;-84
2021/01/19 01:58:45;;;;;;;6.10;3.93;;;;;;;;;;5053730;28;20202;-83
2021/01/19 02:01:11;;;;;;;7.40;4.40;;;;;;;;;;5054666;28;20237;-83
2021/01/19 02:03:38;;;;;;;6.07;4.30;;;;;;;;;;5037155;28;20262;-85
2021/01/19 02:06:05;;;;;;;6.97;4.50;;;;;;;;;;5054935;28;20555;-86
2021/01/19 02:08:44;;;;;;;6.50;4.60;;;;;;;;;;5054607;28;20500;-86
2021/01/19 02:11:14;;;;;;;10.00;5.00;;;;;;;;;;5054751;28;20255;-83
2021/01/19 02:13:44;;;;;;;8.47;4.70;;;;;;;;;;5054727;28;20230;-84
2021/01/19 02:16:16;;;;;;;7.93;4.60;;;;;;;;;;5054449;28;20251;-85
2021/01/19 02:18:50;;;;;;;10.37;5.03;;;;;;;;;;5054355;28;20237;-84
2021/01/19 02:21:27;;;;;;;5.40;4.10;;;;;;;;;;5054664;28;20199;-86
2021/01/19 02:23:56;;;;;;;5.20;3.67;;;;;;;;;;5053490;28;20203;-83
2021/01/19 02:26:40;;;;;;;8.00;4.23;;;;;;;;;;5037060;28;20269;-86
2021/01/19 02:29:14;;;;;;;5.13;3.67;;;;;;;;;;5053691;28;20239;-87
2021/01/19 02:31:55;;;;;;;5.43;4.30;;;;;;;;;;5036561;28;20199;-84
2021/01/19 02:34:25;;;;;;;8.03;4.20;;;;;;;;;;5054656;28;20234;-84
2021/01/19 02:36:54;;;;;;;6.60;4.13;;;;;;;;;;5036635;28;20250;-84
2021/01/19 02:39:25;;;;;;;8.50;3.43;;;;;;;;;;5054630;28;20238;-84
2021/01/19 02:41:52;;;;;;;4.73;3.93;;;;;;;;;;5054401;28;20223;-87
2021/01/19 02:44:19;;;;;;;7.30;4.37;;;;;;;;;;5054424;28;20235;-84
2021/01/19 02:46:49;;;;;;;4.53;3.57;;;;;;;;;;5054124;28;20199;-84
2021/01/19 02:49:16;;;;;;;4.50;4.03;;;;;;;;;;5053348;28;20368;-86
2021/01/19 02:51:43;;;;;;;7.80;4.23;;;;;;;;;;5053511;28;20211;-84
2021/01/19 02:54:10;;;;;;;5.43;3.83;;;;;;;;;;5054399;28;20237;-86
2021/01/19 02:56:43;;;;;;;6.30;4.30;;;;;;;;;;5054143;28;20251;-83
2021/01/19 02:59:14;;;;;;;4.03;3.63;;;;;;;;;;5053557;28;20207;-83
2021/01/19 03:01:43;;;;;;;5.10;4.20;;;;;;;;;;5054506;28;20242;-84
2021/01/19 03:04:10;;;;;;;3.93;3.53;;;;;;;;;;5054149;28;20265;-83
2021/01/19 03:06:38;;;;;;;4.43;3.40;;;;;;;;;;5053765;28;20635;-83
2021/01/19 03:09:04;;;;;;;5.33;3.73;;;;;;;;;;5054097;28;20207;-84
2021/01/19 03:11:31;;;;;;;6.67;3.47;;;;;;;;;;5053982;28;20229;-84
2021/01/19 03:13:57;;;;;;;8.30;4.60;;;;;;;;;;5053318;28;20246;-82
2021/01/19 03:16:24;;;;;;;4.97;3.87;;;;;;;;;;5036182;28;20195;-84
2021/01/19 03:18:51;;;;;;;10.50;3.73;;;;;;;;;;5053387;28;20534;-85
2021/01/19 03:21:17;;;;;;;5.60;4.37;;;;;;;;;;5036132;28;20195;-85
2021/01/19 03:23:44;;;;;;;8.13;4.63;;;;;;;;;;5053296;28;20575;-83
2021/01/19 03:26:10;;;;;;;5.70;3.60;;;;;;;;;;5053857;28;20242;-84
2021/01/19 03:28:36;;;;;;;7.37;3.97;;;;;;;;;;5053822;28;20619;-84
2021/01/19 03:31:03;;;;;;;5.30;4.13;;;;;;;;;;5053780;28;20607;-83
2021/01/19 03:33:29;;;;;;;5.53;4.40;;;;;;;;;;5035245;28;20526;-83
2021/01/19 03:35:55;;;;;;;7.70;3.83;;;;;;;;;;5053488;28;20257;-82
2021/01/19 03:38:21;;;;;;;5.77;4.00;;;;;;;;;;5053494;28;20261;-83
2021/01/19 03:40:48;;;;;;;5.60;3.90;;;;;;;;;;5053668;28;20235;-83
2021/01/19 03:43:14;;;;;;;4.30;3.50;;;;;;;;;;5053707;28;20219;-83
2021/01/19 03:45:41;;;;;;;6.80;4.40;;;;;;;;;;5053739;28;20242;-84
2021/01/19 03:48:07;;;;;;;6.97;4.10;;;;;;;;;;5053243;28;20247;-83
2021/01/19 03:50:33;;;;;;;6.00;3.97;;;;;;;;;;5053732;28;20242;-83
2021/01/19 03:52:59;;;;;;;7.80;3.57;;;;;;;;;;5053056;28;20246;-83
2021/01/19 03:55:28;;;;;;;6.23;4.10;;;;;;;;;;5053758;28;20230;-83
2021/01/19 03:57:55;;;;;;;7.00;4.33;;;;;;;;;;5053433;28;20636;-83
2021/01/19 04:00:21;;;;;;;8.73;3.70;;;;;;;;;;5053289;28;20579;-84
2021/01/19 04:02:48;;;;;;;5.00;4.20;;;;;;;;;;5055676;28;20616;-83
2021/01/19 04:05:14;;;;;;;4.20;3.57;;;;;;;;;;5057162;28;20231;-82
2021/01/19 04:07:40;;;;;;;9.27;4.20;;;;;;;;;;5056748;28;20223;-84
2021/01/19 04:10:08;;;;;;;4.23;3.83;;;;;;;;;;5056577;28;20234;-83
2021/01/19 04:12:34;;;;;;;6.57;3.90;;;;;;;;;;5038700;28;20234;-84
2021/01/19 04:15:01;;;;;;;4.00;3.60;;;;;;;;;;5056927;28;20277;-83
2021/01/19 04:17:27;;;;;;;5.70;3.93;;;;;;;;;;5057287;28;20231;-82
2021/01/19 04:19:53;;;;;;;4.13;3.47;;;;;;;;;;5057147;28;20234;-86
2021/01/19 04:22:19;;;;;;;5.00;3.80;;;;;;;;;;5057213;28;20576;-82
2021/01/19 04:24:45;;;;;;;6.80;3.97;;;;;;;;;;5057603;28;20248;-86
2021/01/19 04:27:11;;;;;;;6.20;4.07;;;;;;;;;;5057583;28;20456;-90
2021/01/19 04:29:37;;;;;;;7.20;3.83;;;;;;;;;;5057206;28;20285;-87
2021/01/19 04:32:05;;;;;;;5.13;4.10;;;;;;;;;;5040586;28;20491;-92
2021/01/19 04:34:31;;;;;;;4.40;4.00;;;;;;;;;;5058830;28;20215;-89
2021/01/19 04:36:57;;;;;;;6.47;4.23;;;;;;;;;;5056944;28;20274;-87
2021/01/19 04:39:23;;;;;;;4.90;4.07;;;;;;;;;;5056580;28;20540;-88
2021/01/19 04:41:49;;;;;;;4.53;3.90;;;;;;;;;;5056343;28;20231;-83
2021/01/19 04:44:16;;;;;;;5.03;3.63;;;;;;;;;;5056803;28;20245;-88
2021/01/19 04:46:43;;;;;;;4.30;3.80;;;;;;;;;;5056581;28;20242;-88
2021/01/19 04:49:11;;;;;;;5.03;3.47;;;;;;;;;;5058436;28;20223;-86
2021/01/19 04:51:38;;;;;;;9.87;4.00;;;;;;;;;;5056628;28;20214;-86
2021/01/19 04:54:05;;;;;;;6.20;4.23;;;;;;;;;;5039180;28;20196;-87
2021/01/19 04:56:32;;;;;;;6.37;4.10;;;;;;;;;;5056441;28;20219;-83
2021/01/19 04:58:58;;;;;;;6.00;4.07;;;;;;;;;;5037701;28;21283;-85
2021/01/19 05:01:38;;;;;;;6.83;4.27;;;;;;;;;;5055637;28;20473;-84
2021/01/19 05:04:16;;;;;;;4.53;4.13;;;;;;;;;;5055534;28;20548;-82
2021/01/19 05:07:13;;;;;;;4.67;3.77;;;;;;;;;;5056003;28;20214;-83
2021/01/19 05:09:47;;;;;;;5.50;3.90;;;;;;;;;;5055848;28;20211;-83
2021/01/19 05:12:18;;;;;;;5.87;4.23;;;;;;;;;;5055461;28;20203;-81
2021/01/19 05:14:44;;;;;;;5.80;4.20;;;;;;;;;;5054810;28;20623;-82
2021/01/19 05:17:10;;;;;;;6.07;4.20;;;;;;;;;;5055488;28;20243;-82
2021/01/19 05:19:38;;;;;;;5.77;3.90;;;;;;;;;;5055756;28;20337;-84
2021/01/19 05:22:04;;;;;;;5.27;3.97;;;;;;;;;;5055974;28;20230;-81
2021/01/19 05:24:31;;;;;;;5.23;3.90;;;;;;;;;;5055944;28;20333;-84
2021/01/19 05:27:00;;;;;;;6.70;4.00;;;;;;;;;;5055933;28;20223;-83
2021/01/19 05:29:29;;;;;;;5.33;4.23;;;;;;;;;;5056107;28;20208;-81
2021/01/19 05:31:55;;;;;;;5.37;3.63;;;;;;;;;;5055764;28;20231;-81
2021/01/19 05:34:22;;;;;;;4.03;3.23;;;;;;;;;;5055516;28;20309;-82
2021/01/19 05:36:48;;;;;;;5.60;3.77;;;;;;;;;;5055337;28;20240;-81
2021/01/19 05:39:16;;;;;;;5.10;3.67;;;;;;;;;;5054798;28;20235;-82
2021/01/19 05:41:43;;;;;;;4.77;3.70;;;;;;;;;;5055419;28;20207;-82
2021/01/19 05:44:14;;;;;;;3.97;3.57;;;;;;;;;;5055353;28;20203;-82
2021/01/19 05:46:44;;;;;;;6.80;3.50;;;;;;;;;;5037672;28;20207;-82
2021/01/19 05:49:13;;;;;;;4.97;3.47;;;;;;;;;;5054689;28;20476;-82
2021/01/19 05:51:41;;;;;;;4.03;3.13;;;;;;;;;;5037291;28;20226;-82
2021/01/19 05:54:10;;;;;;;5.47;4.20;;;;;;;;;;5054936;28;20237;-85
2021/01/19 05:56:37;;;;;;;3.83;3.20;;;;;;;;;;5055233;28;20281;-84
2021/01/19 05:59:04;;;;;;;4.87;3.20;;;;;;;;;;5054780;28;20247;-86
2021/01/19 06:01:31;;;;;;;4.07;3.63;;;;;;;;;;5054791;28;20560;-84
2021/01/19 06:03:58;;;;;;;4.63;3.40;;;;;;;;;;5054406;28;20204;-82
2021/01/19 06:06:25;;;;;;;4.40;3.50;;;;;;;;;;5056107;28;20256;-85
2021/01/19 06:08:57;;;;;;;6.67;3.50;;;;;;;;;;5055058;28;20223;-85
2021/01/19 06:11:23;;;;;;;4.87;3.53;;;;;;;;;;5055286;28;20616;-87
2021/01/19 06:13:50;;;;;;;6.93;3.17;;;;;;;;;;5054986;28;20340;-85
2021/01/19 06:16:20;;;;;;;3.77;3.47;;;;;;;;;;5054851;28;20227;-85
2021/01/19 06:18:46;;;;;;;6.13;4.30;;;;;;;;;;5055055;28;20258;-83
2021/01/19 06:21:24;;;;;;;5.87;3.77;;;;;;;;;;5054819;28;20238;-82
2021/01/19 06:23:50;;;;;;;4.57;3.50;;;;;;;;;;5054858;28;20223;-83
2021/01/19 06:26:17;;;;;;;4.53;3.33;;;;;;;;;;5054383;28;20203;-88
2021/01/19 06:28:43;;;;;;;6.87;3.80;;;;;;;;;;5054599;28;20231;-87
2021/01/19 06:31:10;;;;;;;4.30;3.10;;;;;;;;;;5055009;28;20218;-83
2021/01/19 06:33:38;;;;;;;3.80;3.40;;;;;;;;;;5054346;28;20219;-85
2021/01/19 06:36:05;;;;;;;5.03;3.53;;;;;;;;;;5054266;28;20202;-86
2021/01/19 06:38:31;;;;;;;5.00;3.30;;;;;;;;;;5053825;28;20254;-87
2021/01/19 06:40:59;;;;;;;7.27;3.43;;;;;;;;;;5053393;28;20592;-83
2021/01/19 06:43:27;;;;;;;4.70;3.30;;;;;;;;;;5053526;28;20269;-85
2021/01/19 06:45:55;;;;;;;5.13;3.60;;;;;;;;;;5053715;28;20543;-86
2021/01/19 06:48:21;;;;;;;3.50;3.20;;;;;;;;;;5053454;28;20246;-85
2021/01/19 06:50:55;;;;;;;4.77;3.03;;;;;;;;;;5053815;28;20226;-86
2021/01/19 06:53:23;;;;;;;4.90;3.50;;;;;;;;;;5053124;28;20228;-84
2021/01/19 06:55:55;;;;;;;4.27;3.13;;;;;;;;;;5053691;28;20315;-83
2021/01/19 06:58:37;;;;;;;4.73;3.07;;;;;;;;;;5035151;28;20303;-88
2021/01/19 07:01:08;;;;;;;10.30;4.87;;;;;;;;;;5053059;28;20539;-83
2021/01/19 07:03:37;;;;;;;6.57;3.37;;;;;;;;;;5035901;28;20204;-85
2021/01/19 07:06:05;;;;;;;6.30;3.37;;;;;;;;;;5053744;28;20211;-85
2021/01/19 07:08:49;;;;;;;4.70;2.90;;;;;;;;;;5053702;28;20235;-85
2021/01/19 07:11:34;;;;;;;6.13;2.80;;;;;;;;;;5054054;28;20207;-88
2021/01/19 07:14:09;;;;;;;3.10;2.80;;;;;;;;;;5053368;28;20240;-83
2021/01/19 07:16:39;;;;;;;4.07;2.80;;;;;;;;;;5035675;28;20245;-85
2021/01/19 07:19:19;;;;;;;4.63;3.33;;;;;;;;;;5036133;28;20239;-84
2021/01/19 07:22:00;;;;;;;5.37;2.90;;;;;;;;;;5053912;28;20200;-84
2021/01/19 07:24:29;;;;;;;6.30;3.80;;;;;;;;;;5050734;28;20546;-82
2021/01/19 07:26:58;;;;;;;6.43;4.28;;;;;;;;;;5053062;28;20801;-84
2021/01/19 07:29:24;;;;;;;11.40;5.20;;;;;;;;;;5037262;28;20207;-88
2021/01/19 07:31:50;;;;;;;6.57;3.33;;;;;;;;;;5054457;28;20243;-85
2021/01/19 07:34:18;;;;;;;5.17;3.10;;;;;;;;;;5053737;28;20235;-84
2021/01/19 07:36:52;;;;;;;3.83;3.07;;;;;;;;;;5053499;28;20211;-83
2021/01/19 07:39:20;;;;;;;4.17;2.90;;;;;;;;;;5057325;28;20261;-83
2021/01/19 07:41:48;;;;;;;4.50;3.23;;;;;;;;;;5056999;28;20235;-82
2021/01/19 07:44:21;;;;;;;6.80;3.20;;;;;;;;;;5057639;28;20611;-83
2021/01/19 07:46:48;;;;;;;4.57;3.20;;;;;;;;;;5058134;28;20208;-86
2021/01/19 07:49:14;;;;;;;4.20;3.00;;;;;;;;;;5057749;28;20230;-84
2021/01/19 07:51:42;;;;;;;4.03;2.90;;;;;;;;;;5057536;28;20214;-85
2021/01/19 07:54:09;;;;;;;6.67;3.20;;;;;;;;;;5040580;28;20204;-82
2021/01/19 07:56:36;;;;;;;3.70;2.70;;;;;;;;;;5057487;28;20231;-93
2021/01/19 07:59:03;;;;;;;5.87;3.10;;;;;;;;;;5057903;28;20256;-81
2021/01/19 08:01:30;;;;;;;3.27;3.00;;;;;;;;;;5057187;28;20238;-81
2021/01/19 08:04:07;;;;;;;3.73;2.60;;;;;;;;;;5057123;28;20208;-82
2021/01/19 08:06:34;;;;;;;3.07;2.20;;;;;;;;;;5038886;28;20231;-82
2021/01/19 08:09:09;;;;;;;3.50;2.50;;;;;;;;;;5056861;28;20227;-83
2021/01/19 08:11:35;;;;;;;5.50;2.87;;;;;;;;;;5056483;28;20245;-82
2021/01/19 08:14:03;;;;;;;2.83;2.30;;;;;;;;;;5056743;28;20234;-86
2021/01/19 08:16:32;;;;;;;4.73;2.20;;;;;;;;;;5056739;28;20560;-83
2021/01/19 08:19:08;;;;;;;6.10;2.40;;;;;;;;;;5057001;28;20254;-85
2021/01/19 08:21:36;;;;;;;10.67;4.83;;;;;;;;;;5070055;28;20244;-83
2021/01/19 08:24:03;;;;;;;5.33;3.13;;;;;;;;;;5076833;28;20237;-83
2021/01/19 08:26:29;;;;;;;2.77;2.57;;;;;;;;;;5058643;28;20207;-85
2021/01/19 08:28:56;;;;;;;3.87;2.47;;;;;;;;;;5059461;28;20194;-84
2021/01/19 08:31:27;;;;;;;5.07;2.53;;;;;;;;;;5076507;28;20203;-84
2021/01/19 08:33:54;;;;;;;3.40;2.40;;;;;;;;;;5076831;28;20493;-82
2021/01/19 08:36:21;;;;;;;4.87;2.33;;;;;;;;;;5076240;28;20230;-85
2021/01/19 08:38:47;;;;;;;4.53;2.77;;;;;;;;;;5058517;28;20592;-83
2021/01/19 08:41:16;;;;;;;3.10;2.43;;;;;;;;;;5076117;28;20207;-86
2021/01/19 08:43:50;;;;;;;4.97;2.87;;;;;;;;;;5076615;28;20214;-84
2021/01/19 08:46:16;;;;;;;3.90;2.50;;;;;;;;;;5058390;28;20198;-88
2021/01/19 08:48:43;;;;;;;3.57;2.77;;;;;;;;;;5075621;28;20222;-86
2021/01/19 08:51:18;;;;;;;6.33;2.90;;;;;;;;;;5077308;28;20285;-83
2021/01/19 08:53:46;;;;;;;3.10;2.30;;;;;;;;;;5079258;28;20213;-84
2021/01/19 08:56:16;;;;;;;6.27;2.37;;;;;;;;;;5077328;28;20202;-84
2021/01/19 08:58:42;;;;;;;6.60;2.80;;;;;;;;;;5077759;28;20533;-83
2021/01/19 09:01:08;;;;;;;2.60;2.40;;;;;;;;;;5075582;28;20207;-83
2021/01/19 09:03:34;;;;;;;4.03;2.47;;;;;;;;;;5075987;28;20206;-82
2021/01/19 09:06:01;;;;;;;5.50;2.80;;;;;;;;;;5076141;28;20237;-82
2021/01/19 09:08:28;;;;;;;4.87;2.73;;;;;;;;;;5075774;28;20242;-82
2021/01/19 09:11:00;;;;;;;3.27;2.57;;;;;;;;;;5075959;28;20226;-86
2021/01/19 09:13:27;;;;;;;3.77;2.43;;;;;;;;;;5075582;28;20249;-82
2021/01/19 09:15:54;;;;;;;4.37;2.50;;;;;;;;;;5076196;28;20207;-86
2021/01/19 09:18:20;;;;;;;4.97;2.60;;;;;;;;;;5075089;28;20258;-84
2021/01/19 09:20:46;;;;;;;4.27;2.50;;;;;;;;;;5075806;28;20494;-85
2021/01/19 09:23:15;;;;;;;4.33;2.43;;;;;;;;;;5076878;28;20222;-90
2021/01/19 09:25:42;;;;;;;4.57;2.40;;;;;;;;;;5076891;28;20234;-90
2021/01/19 09:28:08;;;;;;;3.80;2.83;;;;;;;;;;5076521;28;20229;-87
2021/01/19 09:30:37;;;;;;;3.70;2.67;;;;;;;;;;5076196;28;20511;-84
2021/01/19 09:33:04;;;;;;;4.13;2.47;;;;;;;;;;5077967;28;20206;-87
2021/01/19 09:35:30;;;;;;;7.03;2.57;;;;;;;;;;5077256;28;20541;-86
2021/01/19 09:37:56;;;;;;;6.40;2.70;;;;;;;;;;5076144;28;20226;-86
2021/01/19 09:40:29;;;;;;;3.30;2.07;;;;;;;;;;5076768;28;20603;-83
2021/01/19 09:42:56;;;;;;;2.30;2.10;;;;;;;;;;5074865;28;20203;-82
2021/01/19 09:45:22;;;;;;;3.00;2.33;;;;;;;;;;5057377;28;20203;-83
2021/01/19 09:47:48;;;;;;;6.33;2.50;;;;;;;;;;5056712;28;20226;-82
2021/01/19 09:50:14;;;;;;;9.37;3.67;;;;;;;;;;5074673;28;20252;-82
2021/01/19 09:52:44;;;;;;;4.83;2.97;;;;;;;;;;5073870;28;20695;-86
2021/01/19 09:55:11;;;;;;;7.10;2.67;;;;;;;;;;5075497;28;20198;-81
2021/01/19 09:57:38;;;;;;;6.50;2.87;;;;;;;;;;5074188;28;20238;-87
2021/01/19 10:00:06;;;;;;;6.53;3.60;;;;;;;;;;5074815;28;20246;-82
2021/01/19 10:02:32;;;;;;;16.00;4.90;;;;;;;;;;5074750;28;20233;-81
2021/01/19 10:04:59;;;;;;;5.30;2.73;;;;;;;;;;5075029;28;20230;-83
2021/01/19 10:07:27;;;;;;;3.17;1.90;;;;;;;;;;5056966;28;20220;-81
2021/01/19 10:09:53;;;;;;;4.50;2.00;;;;;;;;;;5075106;28;20444;-81
2021/01/19 10:12:20;;;;;;;6.03;2.60;;;;;;;;;;5074234;28;20301;-83
2021/01/19 10:14:46;;;;;;;6.40;2.93;;;;;;;;;;5074483;28;20223;-82
2021/01/19 10:17:16;;;;;;;4.67;2.50;;;;;;;;;;5074340;28;20226;-81
2021/01/19 10:19:42;;;;;;;5.27;2.73;;;;;;;;;;5074122;28;20253;-82
2021/01/19 10:22:09;;;;;;;3.20;2.47;;;;;;;;;;5073768;28;20292;-82
2021/01/19 10:24:36;;;;;;;3.40;3.00;;;;;;;;;;5074428;28;20223;-79
2021/01/19 10:27:03;;;;;;;7.37;3.40;;;;;;;;;;5074316;28;20245;-80
2021/01/19 10:29:30;;;;;;;3.60;2.60;;;;;;;;;;5074232;28;20230;-80
2021/01/19 10:32:00;;;;;;;5.60;2.73;;;;;;;;;;5056133;28;20665;-81
2021/01/19 10:34:27;;;;;;;5.43;2.60;;;;;;;;;;5073694;28;20230;-81
2021/01/19 10:36:54;;;;;;;10.20;2.77;;;;;;;;;;5074095;28;20504;-80
2021/01/19 10:39:21;;;;;;;4.17;2.57;;;;;;;;;;5073455;28;20238;-79
2021/01/19 10:41:47;;;;;;;3.60;2.33;;;;;;;;;;5073527;28;20206;-83
2021/01/19 10:44:14;;;;;;;4.47;2.70;;;;;;;;;;5073462;28;20253;-84
2021/01/19 10:46:40;;;;;;;2.60;2.40;;;;;;;;;;5055611;28;20223;-83
2021/01/19 10:49:08;;;;;;;5.43;2.70;;;;;;;;;;5073399;28;20550;-84
2021/01/19 10:51:36;;;;;;;6.00;2.60;;;;;;;;;;5071855;28;20786;-83
2021/01/19 10:54:03;;;;;;;4.83;2.80;;;;;;;;;;5072003;28;20233;-83
2021/01/19 10:56:29;;;;;;;4.70;2.50;;;;;;;;;;5072075;28;20222;-82
2021/01/19 10:58:55;;;;;;;5.00;2.63;;;;;;;;;;5073797;28;20561;-82
2021/01/19 11:01:21;;;;;;;4.47;2.60;;;;;;;;;;5074446;28;20230;-81
2021/01/19 11:03:47;;;;;;;5.67;2.73;;;;;;;;;;5073513;28;20217;-83
2021/01/19 11:06:14;;;;;;;5.23;2.70;;;;;;;;;;5074111;28;20276;-83
2021/01/19 11:08:40;;;;;;;8.23;2.73;;;;;;;;;;5055953;28;20218;-82
2021/01/19 11:11:09;;;;;;;2.37;2.17;;;;;;;;;;5074214;28;20241;-80
2021/01/19 11:13:36;;;;;;;3.73;2.70;;;;;;;;;;5077997;28;20635;-79
2021/01/19 11:16:02;;;;;;;3.33;2.30;;;;;;;;;;5060295;28;20202;-80
2021/01/19 11:18:28;;;;;;;4.25;2.90;;;;;;;;;;5077917;28;20828;-79
2021/01/19 11:20:54;;;;;;;4.93;3.07;;;;;;;;;;5078523;28;20230;-87
2021/01/19 11:23:21;;;;;;;5.90;2.70;;;;;;;;;;5063712;28;20261;-80
2021/01/19 11:25:47;;;;;;;4.13;2.47;;;;;;;;;;5058194;28;20203;-81
2021/01/19 11:28:13;;;;;;;4.63;2.60;;;;;;;;;;5057437;28;20231;-80
2021/01/19 11:30:40;;;;;;;6.67;2.70;;;;;;;;;;5057861;28;20231;-81
2021/01/19 11:33:06;;;;;;;4.27;2.40;;;;;;;;;;5057953;28;20461;-83
2021/01/19 11:35:35;;;;;;;3.67;2.47;;;;;;;;;;5058877;28;20573;-82
2021/01/19 11:38:01;;;;;;;5.10;3.07;;;;;;;;;;5058090;28;20235;-82
2021/01/19 11:40:28;;;;;;;5.33;2.70;;;;;;;;;;5059160;28;20226;-83
2021/01/19 11:42:54;;;;;;;3.50;2.90;;;;;;;;;;5057620;28;20234;-81
2021/01/19 11:45:21;;;;;;;5.77;2.70;;;;;;;;;;5057655;28;20227;-86
2021/01/19 11:47:47;;;;;;;5.27;2.60;;;;;;;;;;5057566;28;20238;-82
2021/01/19 11:50:13;;;;;;;10.60;3.43;;;;;;;;;;5057014;28;20681;-83
2021/01/19 11:52:40;;;;;;;4.70;3.27;;;;;;;;;;5038512;28;20229;-81
2021/01/19 11:55:06;;;;;;;3.13;2.70;;;;;;;;;;5038784;28;20191;-82
2021/01/19 11:57:33;;;;;;;6.73;3.10;;;;;;;;;;5057488;28;20207;-84
2021/01/19 11:59:59;;;;;;;4.07;2.63;;;;;;;;;;5057612;28;20258;-86
2021/01/19 12:02:25;;;;;;;5.50;2.53;;;;;;;;;;5057387;28;20545;-81
2021/01/19 12:04:51;;;;;;;4.07;2.70;;;;;;;;;;5057021;28;20235;-81
2021/01/19 12:07:17;;;;;;;4.60;3.10;;;;;;;;;;5057617;28;20235;-82
2021/01/19 12:09:45;;;;;;;6.43;3.20;;;;;;;;;;5057368;28;20642;-85
2021/01/19 12:12:11;;;;;;;4.37;2.87;;;;;;;;;;5056598;28;20235;-81
2021/01/19 12:14:38;;;;;;;5.20;3.00;;;;;;;;;;5056951;28;20312;-80
2021/01/19 12:17:04;;;;;;;6.57;3.07;;;;;;;;;;5056456;28;20227;-79
2021/01/19 12:19:30;;;;;;;5.20;3.00;;;;;;;;;;5057113;28;20253;-79
2021/01/19 12:21:58;;;;;;;4.33;2.70;;;;;;;;;;5056769;28;20235;-80
2021/01/19 12:24:24;;;;;;;3.20;2.60;;;;;;;;;;5054776;28;20219;-79
2021/01/19 12:26:51;;;;;;;4.07;2.80;;;;;;;;;;5056708;28;20238;-80
2021/01/19 12:29:18;;;;;;;7.80;2.77;;;;;;;;;;5056959;28;20239;-81
2021/01/19 12:31:45;;;;;;;4.87;2.63;;;;;;;;;;5056641;28;20245;-78
2021/01/19 12:34:11;;;;;;;3.57;2.00;;;;;;;;;;5056667;28;20211;-80
2021/01/19 12:36:37;;;;;;;9.17;3.10;;;;;;;;;;5056426;28;20293;-79
2021/01/19 12:39:04;;;;;;;3.90;2.13;;;;;;;;;;5056468;28;20243;-79
2021/01/19 12:41:30;;;;;;;3.47;1.83;;;;;;;;;;5055930;28;20651;-78
2021/01/19 12:43:56;;;;;;;5.13;2.20;;;;;;;;;;5056096;28;20219;-79
2021/01/19 12:46:22;;;;;;;2.13;1.80;;;;;;;;;;5056196;28;20238;-78
2021/01/19 12:48:51;;;;;;;4.67;2.10;;;;;;;;;;5056143;28;20251;-78
2021/01/19 12:51:18;;;;;;;2.40;2.20;;;;;;;;;;5056222;28;20241;-78
2021/01/19 12:53:44;;;;;;;5.00;2.07;;;;;;;;;;5056322;28;20319;-80
2021/01/19 12:56:11;;;;;;;2.70;1.90;;;;;;;;;;5055646;28;20635;-80
2021/01/19 12:58:37;;;;;;;2.40;1.30;;;;;;;;;;5055772;28;20214;-80
2021/01/19 13:01:03;;;;;;;2.20;1.80;;;;;;;;;;5056031;28;20607;-77
2021/01/19 13:03:30;;;;;;;3.87;1.80;;;;;;;;;;5055903;28;20578;-78
2021/01/19 13:05:56;;;;;;;2.63;1.63;;;;;;;;;;5055840;28;20239;-77
2021/01/19 13:08:23;;;;;;;3.27;2.17;;;;;;;;;;5055823;28;20239;-77
2021/01/19 13:10:49;;;;;;;2.03;1.77;;;;;;;;;;5055835;28;20215;-77
2021/01/19 13:13:15;;;;;;;3.63;1.93;;;;;;;;;;5038319;28;20611;-79
2021/01/19 13:15:42;;;;;;;2.87;1.70;;;;;;;;;;5055210;28;20235;-77
2021/01/19 13:18:08;;;;;;;2.30;1.70;;;;;;;;;;5055493;28;20226;-80
2021/01/19 13:20:34;;;;;;;3.90;1.77;;;;;;;;;;5055629;28;20243;-77
2021/01/19 13:23:01;;;;;;;7.47;2.40;;;;;;;;;;5054728;28;20246;-79
2021/01/19 13:25:27;;;;;;;2.80;2.53;;;;;;;;;;5056470;28;20276;-78
2021/01/19 13:27:53;;;;;;;4.03;2.60;;;;;;;;;;5070092;28;20237;-77
2021/01/19 13:30:20;;;;;;;5.80;2.50;;;;;;;;;;5058809;28;20482;-78
2021/01/19 13:32:46;;;;;;;2.97;2.73;;;;;;;;;;5058905;28;20646;-78
2021/01/19 13:35:13;;;;;;;4.70;2.50;;;;;;;;;;5049744;28;20234;-77
2021/01/19 13:37:39;;;;;;;6.50;2.80;;;;;;;;;;5066087;28;20203;-78
2021/01/19 13:40:07;;;;;;;4.90;2.53;;;;;;;;;;5067863;28;20247;-78
2021/01/19 13:42:33;;;;;;;3.23;2.17;;;;;;;;;;5063737;28;20236;-77
2021/01/19 13:44:59;;;;;;;4.83;2.73;;;;;;;;;;5065711;28;20255;-78
2021/01/19 13:47:25;;;;;;;2.60;2.30;;;;;;;;;;5054124;28;20222;-78
2021/01/19 13:49:51;;;;;;;5.17;2.57;;;;;;;;;;5059707;28;20242;-78
2021/01/19 13:52:18;;;;;;;4.17;2.17;;;;;;;;;;5065778;28;20234;-79
2021/01/19 13:54:44;;;;;;;4.23;3.67;;;;;;;;;;5067284;28;20250;-78
2021/01/19 13:57:11;;;;;;;6.77;3.67;;;;;;;;;;5058136;28;20234;-78
2021/01/19 13:59:37;;;;;;;2.80;2.33;;;;;;;;;;5071468;28;20258;-78
2021/01/19 14:02:03;;;;;;;3.57;2.60;;;;;;;;;;5061266;28;20899;-78
2021/01/19 14:04:29;;;;;;;3.20;2.93;;;;;;;;;;5064451;28;20231;-77
2021/01/19 14:06:55;;;;;;;3.27;2.30;;;;;;;;;;5068228;28;20226;-78
2021/01/19 14:09:21;;;;;;;4.30;2.27;;;;;;;;;;5059807;28;20227;-78
2021/01/19 14:11:50;;;;;;;2.07;1.97;;;;;;;;;;5066958;28;20643;-78
2021/01/19 14:14:18;;;;;;;1.87;1.60;;;;;;;;;;5074678;28;20575;-79
2021/01/19 14:16:45;;;;;;;2.30;1.80;;;;;;;;;;5074309;28;20233;-79
2021/01/19 14:19:11;;;;;;;3.47;1.80;;;;;;;;;;5074766;28;20283;-79
2021/01/19 14:21:37;;;;;;;3.70;1.70;;;;;;;;;;5074259;28;20260;-78
2021/01/19 14:24:04;;;;;;;1.67;1.57;;;;;;;;;;5074779;28;20207;-78
2021/01/19 14:26:32;;;;;;;2.50;1.70;;;;;;;;;;5073673;28;20238;-78
2021/01/19 14:28:58;;;;;;;4.40;2.50;;;;;;;;;;5074030;28;20234;-78
2021/01/19 14:31:32;;;;;;;3.13;2.00;;;;;;;;;;5074218;28;20226;-79
2021/01/19 14:33:58;;;;;;;6.23;2.50;;;;;;;;;;5074157;28;20241;-78
2021/01/19 14:36:24;;;;;;;2.50;2.00;;;;;;;;;;5074061;28;20233;-80
2021/01/19 14:38:51;;;;;;;4.63;2.50;;;;;;;;;;5074355;28;20240;-80
2021/01/19 14:41:17;;;;;;;4.37;2.27;;;;;;;;;;5074280;28;20637;-78
2021/01/19 14:43:43;;;;;;;5.67;2.53;;;;;;;;;;5074543;28;20233;-78
2021/01/19 14:46:09;;;;;;;2.80;2.53;;;;;;;;;;5073080;28;20241;-78